createdAt,value
2019-05-06T00:02:43.584Z,99.99
2019-05-06T00:07:39.626Z,99.99
2019-05-06T00:12:35.925Z,99.99
2019-05-06T00:17:34.738Z,99.99
2019-05-06T00:22:29.939Z,99.99
2019-05-06T00:27:27.585Z,99.99
2019-05-06T00:32:24.328Z,99.99
2019-05-06T00:37:21.323Z,99.99
2019-05-06T00:42:16.780Z,99.99
2019-05-06T00:47:13.558Z,99.99
2019-05-06T00:52:08.707Z,99.99
2019-05-06T00:57:04.401Z,99.99
2019-05-06T01:02:01.128Z,99.99
2019-05-06T01:06:56.592Z,99.99
2019-05-06T01:11:54.226Z,99.99
2019-05-06T01:16:50.185Z,99.99
2019-05-06T01:21:45.995Z,99.99
2019-05-06T01:26:44.172Z,99.99
2019-05-06T01:31:43.060Z,99.99
2019-05-06T01:36:38.543Z,99.99
2019-05-06T01:41:34.417Z,99.99
2019-05-06T01:46:30.006Z,99.99
2019-05-06T01:51:26.701Z,99.99
2019-05-06T01:56:24.118Z,99.99
2019-05-06T02:01:20.213Z,99.99
2019-05-06T02:06:15.870Z,99.99
2019-05-06T02:11:14.661Z,99.99
2019-05-06T02:16:10.847Z,99.99
2019-05-06T02:21:06.367Z,99.99
2019-05-06T02:26:02.026Z,99.99
2019-05-06T02:30:58.635Z,99.99
2019-05-06T02:35:55.082Z,99.99
2019-05-06T02:40:53.386Z,99.99
2019-05-06T02:45:48.066Z,99.99
2019-05-06T02:50:43.749Z,99.99
2019-05-06T02:55:42.806Z,99.99
2019-05-06T03:00:37.910Z,99.99
2019-05-06T03:05:33.746Z,99.99
2019-05-06T03:10:32.771Z,99.99
2019-05-06T03:15:27.873Z,99.99
2019-05-06T03:20:23.741Z,99.99
2019-05-06T03:25:19.456Z,99.99
2019-05-06T03:30:16.829Z,99.99
2019-05-06T03:35:31.598Z,99.99
2019-05-06T03:40:13.875Z,99.99
2019-05-06T03:45:08.659Z,99.99
2019-05-06T03:50:04.883Z,99.99
2019-05-06T03:55:03.595Z,99.99
2019-05-06T03:59:58.897Z,99.99
2019-05-06T04:04:56.721Z,99.99
2019-05-06T04:09:53.637Z,99.99
2019-05-06T04:14:48.869Z,99.99
2019-05-06T04:19:44.493Z,99.99
2019-05-06T04:24:42.997Z,99.99
2019-05-06T04:29:37.998Z,99.99
2019-05-06T04:34:33.853Z,99.99
2019-05-06T04:39:32.802Z,99.99
2019-05-06T04:44:28.240Z,99.99
2019-05-06T04:49:24.243Z,99.99
2019-05-06T04:54:26.160Z,99.99
2019-05-06T04:59:23.249Z,99.99
2019-05-06T05:04:27.824Z,99.99
2019-05-06T05:09:17.592Z,99.99
2019-05-06T05:14:13.513Z,99.99
2019-05-06T05:19:09.183Z,99.99
2019-05-06T05:24:05.733Z,99.99
2019-05-06T05:29:02.885Z,99.99
2019-05-06T05:33:58.569Z,99.99
2019-05-06T05:38:54.034Z,99.99
2019-05-06T05:43:49.818Z,99.99
2019-05-06T05:48:46.593Z,99.99
2019-05-06T05:53:42.640Z,99.99
2019-05-06T05:58:38.791Z,99.99
2019-05-06T06:03:34.647Z,99.99
2019-05-06T06:08:32.242Z,99.99
2019-05-06T06:13:27.453Z,99.99
2019-05-06T06:18:24.165Z,99.99
2019-05-06T06:23:20.133Z,99.99
2019-05-06T06:28:15.942Z,99.99
2019-05-06T06:33:12.918Z,99.99
2019-05-06T06:38:09.567Z,99.99
2019-05-06T06:43:05.375Z,99.99
2019-05-06T06:48:03.105Z,99.99
2019-05-06T06:52:59.237Z,99.99
2019-05-06T06:57:56.987Z,99.99
2019-05-06T07:02:52.947Z,99.99
2019-05-06T07:07:48.983Z,99.99
2019-05-06T07:12:45.297Z,99.99
2019-05-06T07:17:42.309Z,99.99
2019-05-06T07:22:37.930Z,99.99
2019-05-06T07:27:35.372Z,99.99
2019-05-06T07:32:32.622Z,99.99
2019-05-06T07:37:28.119Z,99.99
2019-05-06T07:42:24.965Z,99.99
2019-05-06T07:47:20.759Z,99.99
2019-05-06T07:52:17.850Z,99.99
2019-05-06T07:57:14.232Z,98.03
2019-05-06T08:02:10.607Z,95.89
2019-05-06T08:07:09.592Z,94.08
2019-05-06T08:12:05.877Z,92.98
2019-05-06T08:17:03.758Z,92.69
2019-05-06T08:21:59.656Z,91.08
2019-05-06T08:26:58.705Z,90.89
2019-05-06T08:31:56.325Z,89.36
2019-05-06T08:36:53.220Z,87.46
2019-05-06T08:41:52.808Z,83.26
2019-05-06T08:46:48.736Z,79.68
2019-05-06T08:51:43.891Z,79.59
2019-05-06T08:56:42.552Z,77.11
2019-05-06T09:01:37.083Z,76.73
2019-05-06T09:06:34.548Z,74.86
2019-05-06T09:11:32.167Z,69.81
2019-05-06T09:16:28.684Z,67.65
2019-05-06T09:21:26.043Z,66.00
2019-05-06T09:26:25.234Z,61.72
2019-05-06T09:31:22.995Z,58.95
2019-05-06T09:36:19.738Z,57.17
2019-05-06T09:41:16.219Z,58.12
2019-05-06T09:46:13.486Z,58.48
2019-05-06T09:51:09.007Z,59.34
2019-05-06T09:56:04.577Z,59.15
2019-05-06T10:01:02.491Z,60.20
2019-05-06T10:05:57.668Z,58.03
2019-05-06T10:10:59.542Z,57.90
2019-05-06T10:15:52.407Z,59.31
2019-05-06T10:20:48.199Z,57.81
2019-05-06T10:25:45.813Z,56.72
2019-05-06T10:30:40.588Z,55.07
2019-05-06T10:35:35.959Z,56.67
2019-05-06T10:40:32.914Z,60.07
2019-05-06T10:45:29.016Z,61.22
2019-05-06T10:50:24.245Z,60.93
2019-05-06T10:55:22.974Z,60.46
2019-05-06T11:00:23.070Z,59.08
2019-05-06T11:05:19.230Z,57.93
2019-05-06T11:10:24.360Z,57.75
2019-05-06T11:15:13.677Z,57.71
2019-05-06T11:20:11.406Z,60.01
2019-05-06T11:25:08.962Z,62.01
2019-05-06T11:30:04.405Z,63.16
2019-05-06T11:35:03.484Z,62.59
2019-05-06T11:39:58.487Z,61.16
2019-05-06T11:44:53.512Z,62.46
2019-05-06T11:49:53.166Z,61.41
2019-05-06T11:54:52.951Z,60.52
2019-05-06T11:59:45.107Z,63.73
2019-05-06T12:04:41.836Z,64.94
2019-05-06T12:09:36.492Z,66.15
2019-05-06T12:14:31.591Z,68.44
2019-05-06T12:19:27.540Z,68.73
2019-05-06T12:24:24.564Z,68.73
2019-05-06T12:29:21.350Z,66.28
2019-05-06T12:34:17.677Z,65.80
2019-05-06T12:39:15.739Z,67.58
2019-05-06T12:44:13.230Z,66.82
2019-05-06T12:49:09.588Z,68.00
2019-05-06T12:54:05.178Z,66.70
2019-05-06T12:59:02.043Z,67.05
2019-05-06T13:03:58.454Z,67.08
2019-05-06T13:09:01.336Z,68.04
2019-05-06T13:14:00.210Z,64.56
2019-05-06T13:18:54.883Z,63.99
2019-05-06T13:23:50.029Z,66.00
2019-05-06T13:28:46.571Z,64.98
2019-05-06T13:33:43.966Z,63.16
2019-05-06T13:38:39.458Z,66.28
2019-05-06T13:43:35.414Z,66.85
2019-05-06T13:48:32.545Z,68.26
2019-05-06T13:53:39.340Z,68.16
2019-05-06T13:58:27.042Z,65.61
2019-05-06T14:03:23.868Z,65.61
2019-05-06T14:08:22.196Z,67.11
2019-05-06T14:13:17.564Z,64.85
2019-05-06T14:18:13.695Z,64.85
2019-05-06T14:23:12.404Z,65.01
2019-05-06T14:28:07.436Z,66.72
2019-05-06T14:33:03.386Z,68.63
2019-05-06T14:37:59.235Z,66.53
2019-05-06T14:42:56.533Z,66.35
2019-05-06T14:47:52.704Z,66.56
2019-05-06T14:52:48.939Z,64.94
2019-05-06T14:57:44.710Z,66.15
2019-05-06T15:02:42.855Z,66.72
2019-05-06T15:07:39.136Z,68.06
2019-05-06T15:12:35.492Z,68.54
2019-05-06T15:17:32.828Z,68.92
2019-05-06T15:22:28.721Z,69.37
2019-05-06T15:27:25.486Z,68.98
2019-05-06T15:32:22.287Z,67.65
2019-05-06T15:37:18.675Z,67.74
2019-05-06T15:42:13.837Z,66.41
2019-05-06T15:47:09.347Z,66.28
2019-05-06T15:52:05.477Z,67.61
2019-05-06T15:57:01.311Z,68.76
2019-05-06T16:01:57.084Z,69.23
2019-05-06T16:06:53.198Z,71.04
2019-05-06T16:11:49.275Z,71.04
2019-05-06T16:16:45.001Z,70.00
2019-05-06T16:21:44.676Z,71.91
2019-05-06T16:26:39.780Z,73.33
2019-05-06T16:31:36.725Z,74.86
2019-05-06T16:36:32.821Z,77.15
2019-05-06T16:41:29.428Z,77.62
2019-05-06T16:46:24.843Z,80.35
2019-05-06T16:51:22.363Z,84.74
2019-05-06T16:56:17.162Z,88.70
2019-05-06T17:01:15.143Z,91.65
2019-05-06T17:06:13.777Z,98.70
2019-05-06T17:11:26.243Z,99.99
2019-05-06T17:16:08.590Z,99.99
2019-05-06T17:21:04.278Z,99.99
2019-05-06T17:26:00.007Z,99.99
2019-05-06T17:30:55.658Z,99.99
2019-05-06T17:35:52.390Z,99.99
2019-05-06T17:40:48.942Z,99.99
2019-05-06T17:45:58.416Z,99.99
2019-05-06T17:50:44.073Z,99.99
2019-05-06T17:55:39.725Z,99.99
2019-05-06T18:00:35.456Z,99.99
2019-05-06T18:05:32.527Z,99.99
2019-05-06T18:10:27.949Z,99.99
2019-05-06T18:15:24.742Z,99.99
2019-05-06T18:20:22.161Z,99.99
2019-05-06T18:25:18.939Z,99.99
2019-05-06T18:30:23.293Z,99.99
2019-05-06T18:35:14.427Z,99.99
2019-05-06T18:40:12.080Z,99.99
2019-05-06T18:45:06.697Z,99.99
2019-05-06T18:50:03.269Z,99.99
2019-05-06T18:54:58.476Z,99.99
2019-05-06T18:59:54.196Z,99.99
2019-05-06T19:04:49.649Z,99.99
2019-05-06T19:09:45.271Z,99.99
2019-05-06T19:14:43.272Z,99.99
2019-05-06T19:19:38.137Z,99.99
2019-05-06T19:24:33.884Z,99.99
2019-05-06T19:29:29.605Z,99.99
2019-05-06T19:34:25.224Z,99.99
2019-05-06T19:39:23.099Z,99.99
2019-05-06T19:44:18.027Z,99.99
2019-05-06T19:49:14.708Z,99.99
2019-05-06T19:54:12.481Z,99.99
2019-05-06T19:59:08.746Z,99.99
2019-05-06T20:04:04.050Z,99.99
2019-05-06T20:09:02.158Z,99.99
2019-05-06T20:13:57.339Z,99.99
2019-05-06T20:18:54.147Z,99.99
2019-05-06T20:23:49.693Z,99.99
2019-05-06T20:28:45.499Z,99.99
2019-05-06T20:33:42.744Z,99.99
2019-05-06T20:38:38.245Z,99.99
2019-05-06T20:43:35.060Z,99.99
2019-05-06T20:48:32.555Z,99.99
2019-05-06T20:53:27.901Z,99.99
2019-05-06T20:58:23.750Z,99.99
2019-05-06T21:03:22.168Z,99.99
2019-05-06T21:08:17.228Z,99.99
2019-05-06T21:13:13.447Z,99.99
2019-05-06T21:18:12.048Z,99.99
2019-05-06T21:23:08.195Z,99.99
2019-05-06T21:28:04.733Z,99.99
2019-05-06T21:33:00.686Z,99.99
2019-05-06T21:37:56.377Z,99.99
2019-05-06T21:42:52.244Z,99.99
2019-05-06T21:47:48.356Z,99.99
2019-05-06T21:52:44.136Z,99.99
2019-05-06T21:57:42.280Z,99.99
2019-05-06T22:02:37.940Z,99.99
2019-05-06T22:07:35.852Z,99.99
2019-05-06T22:12:32.248Z,99.99
2019-05-06T22:17:27.643Z,99.99
2019-05-06T22:22:23.536Z,99.99
2019-05-06T22:27:21.872Z,99.99
2019-05-06T22:32:18.128Z,99.99
2019-05-06T22:37:14.560Z,99.99
2019-05-06T22:42:10.156Z,99.99
2019-05-06T22:47:05.921Z,99.99
2019-05-06T22:52:02.927Z,99.99
2019-05-06T22:56:59.367Z,99.99
2019-05-06T23:01:55.274Z,99.99
2019-05-06T23:06:51.687Z,99.99
2019-05-06T23:11:47.138Z,99.99
2019-05-06T23:16:42.608Z,99.99
2019-05-06T23:21:38.212Z,99.99
2019-05-06T23:26:35.161Z,99.99
2019-05-06T23:31:33.029Z,99.99
2019-05-06T23:36:28.825Z,99.99
2019-05-06T23:41:25.583Z,99.99
2019-05-06T23:46:22.674Z,99.99
2019-05-06T23:51:17.739Z,99.99
2019-05-06T23:56:13.413Z,99.99
